Time;durP1;ratioP1;P1;durP2;ratioP2;P2;SDS_P1;SDS_P2;PMS_P1;PMS_P2;Temp;Humidity;BMP_temperature;BMP_pressure;BME280_temperature;BME280_humidity;BME280_pressure;Samples;Min_cycle;Max_cycle;Signal;HPM_P1;HPM_P2
2021/06/06 00:01:39;;;;;;;3.13;2.10;;;;;;;;;;5093762;28;20569;-69
2021/06/06 00:04:06;;;;;;;3.53;1.90;;;;;;;;;;5108978;28;20048;-69
2021/06/06 00:06:36;;;;;;;4.13;1.80;;;;;;;;;;5093834;27;20052;-69
2021/06/06 00:09:07;;;;;;;2.90;1.63;;;;;;;;;;5093037;28;20056;-69
2021/06/06 00:11:35;;;;;;;2.42;1.67;;;;;;;;;;5108179;28;20051;-69
2021/06/06 00:14:03;;;;;;;2.67;2.00;;;;;;;;;;5113276;28;20043;-69
2021/06/06 00:16:35;;;;;;;2.85;1.88;;;;;;;;;;5102454;28;20095;-69
2021/06/06 00:19:01;;;;;;;3.45;2.00;;;;;;;;;;5092736;28;20059;-69
2021/06/06 00:21:28;;;;;;;3.45;1.80;;;;;;;;;;5092981;28;20139;-69
2021/06/06 00:23:56;;;;;;;2.65;1.75;;;;;;;;;;5116214;27;20043;-69
2021/06/06 00:26:22;;;;;;;2.85;2.17;;;;;;;;;;5117478;27;20632;-69
2021/06/06 00:28:48;;;;;;;2.58;2.00;;;;;;;;;;5111115;28;20096;-69
2021/06/06 00:31:15;;;;;;;2.80;1.90;;;;;;;;;;5112698;28;20054;-69
2021/06/06 00:33:41;;;;;;;3.03;2.13;;;;;;;;;;5112105;28;20043;-69
2021/06/06 00:36:09;;;;;;;3.92;2.63;;;;;;;;;;5112523;28;20047;-69
2021/06/06 00:38:35;;;;;;;3.38;2.33;;;;;;;;;;5113407;28;20058;-69
2021/06/06 00:41:03;;;;;;;4.15;2.80;;;;;;;;;;5112468;28;20373;-69
2021/06/06 00:43:29;;;;;;;3.92;2.58;;;;;;;;;;5112166;28;20047;-69
2021/06/06 00:45:55;;;;;;;4.70;2.72;;;;;;;;;;5112030;28;20067;-69
2021/06/06 00:48:22;;;;;;;3.00;2.20;;;;;;;;;;5114220;28;20044;-69
2021/06/06 00:50:53;;;;;;;4.45;2.67;;;;;;;;;;5119372;27;20044;-69
2021/06/06 00:53:24;;;;;;;3.53;2.30;;;;;;;;;;5122638;27;20081;-69
2021/06/06 00:55:51;;;;;;;4.13;2.60;;;;;;;;;;5115352;27;20117;-69
2021/06/06 00:58:18;;;;;;;3.60;2.58;;;;;;;;;;5104735;28;20048;-69
2021/06/06 01:00:47;;;;;;;3.80;2.70;;;;;;;;;;5114412;28;20057;-69
2021/06/06 01:03:13;;;;;;;4.70;2.50;;;;;;;;;;5112511;28;20044;-69
2021/06/06 01:05:43;;;;;;;3.72;2.70;;;;;;;;;;5112461;28;20043;-70
2021/06/06 01:08:11;;;;;;;3.88;2.80;;;;;;;;;;5112625;28;20067;-70
2021/06/06 01:10:37;;;;;;;6.18;2.92;;;;;;;;;;5112529;28;20484;-69
2021/06/06 01:13:06;;;;;;;3.80;2.30;;;;;;;;;;5112245;28;20130;-69
2021/06/06 01:15:37;;;;;;;4.43;2.40;;;;;;;;;;5112513;28;20047;-69
2021/06/06 01:18:08;;;;;;;3.97;2.78;;;;;;;;;;5103204;28;20052;-69
2021/06/06 01:20:41;;;;;;;3.70;2.75;;;;;;;;;;5112882;28;20044;-69
2021/06/06 01:23:27;;;;;;;4.20;2.97;;;;;;;;;;5112582;28;20435;-69
2021/06/06 01:25:56;;;;;;;4.35;2.75;;;;;;;;;;5092293;28;20056;-69
2021/06/06 01:28:26;;;;;;;5.00;2.47;;;;;;;;;;5091414;28;20109;-69
2021/06/06 01:30:56;;;;;;;4.85;3.05;;;;;;;;;;5107866;28;20396;-69
2021/06/06 01:33:26;;;;;;;4.05;2.67;;;;;;;;;;5116001;28;20048;-69
2021/06/06 01:35:54;;;;;;;5.50;2.63;;;;;;;;;;5115890;28;20054;-69
2021/06/06 01:38:23;;;;;;;3.72;2.75;;;;;;;;;;5115792;28;20047;-70
2021/06/06 01:40:51;;;;;;;3.70;2.63;;;;;;;;;;5108306;28;20105;-70
2021/06/06 01:43:21;;;;;;;4.57;2.63;;;;;;;;;;5116208;28;20055;-70
2021/06/06 01:45:49;;;;;;;3.33;2.30;;;;;;;;;;5115826;28;20476;-69
2021/06/06 01:48:15;;;;;;;2.92;2.22;;;;;;;;;;5115086;28;20058;-69
2021/06/06 01:50:43;;;;;;;3.78;2.83;;;;;;;;;;5114589;27;20043;-69
2021/06/06 01:53:10;;;;;;;3.22;2.33;;;;;;;;;;5115437;28;20092;-69
2021/06/06 01:55:42;;;;;;;3.88;2.17;;;;;;;;;;5115950;28;20105;-69
2021/06/06 01:58:08;;;;;;;3.88;2.58;;;;;;;;;;5114560;28;20108;-69
2021/06/06 02:00:38;;;;;;;3.30;2.17;;;;;;;;;;5115146;28;20436;-69
2021/06/06 02:03:07;;;;;;;3.78;2.50;;;;;;;;;;5106733;28;20051;-69
2021/06/06 02:05:33;;;;;;;3.13;2.33;;;;;;;;;;5115386;28;20083;-69
2021/06/06 02:07:59;;;;;;;5.03;2.60;;;;;;;;;;5115206;28;20096;-69
2021/06/06 02:10:28;;;;;;;3.13;2.20;;;;;;;;;;5115552;28;20130;-69
2021/06/06 02:13:03;;;;;;;3.45;2.28;;;;;;;;;;5114966;28;20051;-69
2021/06/06 02:15:32;;;;;;;3.95;2.38;;;;;;;;;;5114967;28;20407;-69
2021/06/06 02:18:00;;;;;;;2.88;1.90;;;;;;;;;;5114155;28;20060;-69
2021/06/06 02:20:33;;;;;;;3.67;2.25;;;;;;;;;;5106812;28;20400;-69
2021/06/06 02:23:00;;;;;;;3.53;2.58;;;;;;;;;;5100366;28;20054;-69
2021/06/06 02:25:27;;;;;;;3.33;2.40;;;;;;;;;;5114995;28;20097;-69
2021/06/06 02:28:01;;;;;;;4.07;2.20;;;;;;;;;;5115289;28;20083;-69
2021/06/06 02:30:32;;;;;;;3.83;2.20;;;;;;;;;;5114934;27;20051;-69
2021/06/06 02:33:06;;;;;;;3.50;2.45;;;;;;;;;;5115225;28;20108;-69
2021/06/06 02:35:34;;;;;;;3.05;2.15;;;;;;;;;;5115007;28;20053;-69
2021/06/06 02:38:05;;;;;;;3.72;2.75;;;;;;;;;;5114672;28;20051;-69
2021/06/06 02:40:34;;;;;;;3.55;2.40;;;;;;;;;;5110307;27;20047;-69
2021/06/06 02:43:04;;;;;;;3.05;2.25;;;;;;;;;;5123030;27;20080;-69
2021/06/06 02:45:31;;;;;;;3.70;2.30;;;;;;;;;;5121751;27;20039;-69
2021/06/06 02:48:01;;;;;;;3.13;2.05;;;;;;;;;;5117346;27;20047;-69
2021/06/06 02:50:32;;;;;;;2.92;2.17;;;;;;;;;;5111202;28;20048;-69
2021/06/06 02:53:00;;;;;;;2.60;1.70;;;;;;;;;;5114813;28;20388;-69
2021/06/06 02:55:29;;;;;;;3.53;2.25;;;;;;;;;;5114229;28;20040;-69
2021/06/06 02:58:00;;;;;;;2.28;1.58;;;;;;;;;;5112357;28;20434;-69
2021/06/06 03:00:28;;;;;;;3.65;2.13;;;;;;;;;;5106948;28;20040;-69
2021/06/06 03:02:58;;;;;;;2.78;1.95;;;;;;;;;;5102214;28;20067;-69
2021/06/06 03:05:29;;;;;;;3.60;2.10;;;;;;;;;;5107724;28;20047;-69
2021/06/06 03:07:57;;;;;;;3.92;2.25;;;;;;;;;;5114182;28;20044;-69
2021/06/06 03:10:25;;;;;;;3.78;2.00;;;;;;;;;;5114476;28;20054;-69
2021/06/06 03:12:54;;;;;;;3.20;2.13;;;;;;;;;;5114147;28;20433;-69
2021/06/06 03:15:22;;;;;;;3.50;2.10;;;;;;;;;;5114045;28;20130;-70
2021/06/06 03:17:52;;;;;;;2.40;1.90;;;;;;;;;;5113256;28;20040;-69
2021/06/06 03:20:20;;;;;;;4.38;2.40;;;;;;;;;;5114368;28;20077;-69
2021/06/06 03:22:49;;;;;;;4.45;2.03;;;;;;;;;;5114409;28;20473;-69
2021/06/06 03:25:19;;;;;;;3.08;2.15;;;;;;;;;;5113839;28;20055;-69
2021/06/06 03:27:46;;;;;;;3.13;1.83;;;;;;;;;;5130101;27;20406;-69
2021/06/06 03:30:20;;;;;;;2.38;1.70;;;;;;;;;;5113899;28;20043;-69
2021/06/06 03:32:47;;;;;;;5.03;2.35;;;;;;;;;;5113724;28;20069;-69
2021/06/06 03:35:13;;;;;;;3.83;2.38;;;;;;;;;;5113948;28;20048;-69
2021/06/06 03:37:45;;;;;;;3.20;2.40;;;;;;;;;;5113794;28;20044;-69
2021/06/06 03:40:14;;;;;;;3.22;1.83;;;;;;;;;;5113475;28;20456;-69
2021/06/06 03:42:40;;;;;;;6.18;1.92;;;;;;;;;;5113661;28;20082;-69
2021/06/06 03:45:08;;;;;;;2.40;1.83;;;;;;;;;;5113592;28;20225;-69
2021/06/06 03:47:34;;;;;;;3.15;2.28;;;;;;;;;;5112911;28;20109;-69
2021/06/06 03:50:00;;;;;;;2.58;1.88;;;;;;;;;;5101794;28;20139;-69
2021/06/06 03:52:26;;;;;;;4.03;1.90;;;;;;;;;;5092332;28;20129;-69
2021/06/06 03:54:53;;;;;;;2.40;1.95;;;;;;;;;;5097670;28;20039;-69
2021/06/06 03:57:21;;;;;;;3.25;1.98;;;;;;;;;;5113453;28;20308;-69
2021/06/06 03:59:47;;;;;;;4.65;2.65;;;;;;;;;;5108803;28;20058;-69
2021/06/06 04:02:13;;;;;;;3.55;2.13;;;;;;;;;;5102535;28;20181;-69
2021/06/06 04:04:39;;;;;;;3.38;2.35;;;;;;;;;;5104755;28;20047;-69
2021/06/06 04:07:05;;;;;;;4.97;2.55;;;;;;;;;;5113652;28;20055;-70
2021/06/06 04:09:31;;;;;;;4.45;2.78;;;;;;;;;;5113550;28;20471;-69
2021/06/06 04:11:57;;;;;;;3.67;2.80;;;;;;;;;;5113316;28;20130;-69
2021/06/06 04:14:25;;;;;;;4.38;3.22;;;;;;;;;;5113402;28;20468;-69
2021/06/06 04:16:51;;;;;;;5.65;2.63;;;;;;;;;;5112712;27;20055;-69
2021/06/06 04:19:17;;;;;;;3.28;2.40;;;;;;;;;;5113301;28;20052;-69
2021/06/06 04:21:42;;;;;;;3.45;2.72;;;;;;;;;;5112773;28;20054;-69
2021/06/06 04:24:09;;;;;;;3.13;2.33;;;;;;;;;;5113294;28;20047;-69
2021/06/06 04:26:35;;;;;;;4.20;2.78;;;;;;;;;;5112459;28;20051;-69
2021/06/06 04:29:01;;;;;;;5.25;2.90;;;;;;;;;;5112685;28;20126;-69
2021/06/06 04:31:29;;;;;;;4.45;2.90;;;;;;;;;;5112813;28;20066;-69
2021/06/06 04:33:55;;;;;;;4.18;3.10;;;;;;;;;;5112859;28;20040;-69
2021/06/06 04:36:21;;;;;;;3.55;2.63;;;;;;;;;;5112581;28;20511;-69
2021/06/06 04:38:47;;;;;;;3.90;2.70;;;;;;;;;;5113105;28;20078;-69
2021/06/06 04:41:13;;;;;;;3.50;2.70;;;;;;;;;;5112695;28;20130;-69
2021/06/06 04:43:40;;;;;;;4.35;2.60;;;;;;;;;;5112817;28;20173;-70
2021/06/06 04:46:06;;;;;;;5.80;2.50;;;;;;;;;;5113183;28;20083;-70
2021/06/06 04:48:36;;;;;;;3.55;2.25;;;;;;;;;;5112270;28;20432;-69
2021/06/06 04:51:04;;;;;;;3.63;2.40;;;;;;;;;;5113151;28;20051;-69
2021/06/06 04:53:30;;;;;;;3.70;2.58;;;;;;;;;;5112593;28;20065;-70
2021/06/06 04:55:58;;;;;;;3.35;2.25;;;;;;;;;;5112897;28;20046;-70
2021/06/06 04:58:27;;;;;;;6.55;2.40;;;;;;;;;;5112829;28;20043;-70
2021/06/06 05:00:55;;;;;;;3.30;2.10;;;;;;;;;;5108736;28;20051;-70
2021/06/06 05:03:21;;;;;;;3.08;2.30;;;;;;;;;;5104805;28;20043;-69
2021/06/06 05:05:49;;;;;;;4.43;2.63;;;;;;;;;;5125611;27;20036;-69
2021/06/06 05:08:16;;;;;;;4.53;2.60;;;;;;;;;;5124224;27;20063;-69
2021/06/06 05:10:44;;;;;;;2.88;2.33;;;;;;;;;;5116683;28;20048;-69
2021/06/06 05:13:12;;;;;;;4.82;2.58;;;;;;;;;;5116663;28;20054;-70
2021/06/06 05:15:38;;;;;;;3.67;2.70;;;;;;;;;;5115991;28;20472;-69
2021/06/06 05:18:05;;;;;;;4.55;2.47;;;;;;;;;;5115739;28;20065;-70
2021/06/06 05:20:35;;;;;;;3.10;2.38;;;;;;;;;;5106970;28;20130;-70
2021/06/06 05:23:03;;;;;;;3.55;2.50;;;;;;;;;;5126851;27;20491;-69
2021/06/06 05:25:30;;;;;;;4.75;2.92;;;;;;;;;;5121640;27;20048;-69
2021/06/06 05:27:56;;;;;;;3.47;2.47;;;;;;;;;;5116749;28;20051;-70
2021/06/06 05:30:24;;;;;;;5.38;2.67;;;;;;;;;;5116070;28;20417;-69
2021/06/06 05:32:51;;;;;;;4.35;3.13;;;;;;;;;;5116391;28;20074;-69
2021/06/06 05:35:18;;;;;;;4.80;3.55;;;;;;;;;;5116138;28;20058;-70
2021/06/06 05:37:44;;;;;;;5.15;3.22;;;;;;;;;;5116274;28;20051;-69
2021/06/06 05:40:12;;;;;;;5.50;3.38;;;;;;;;;;5116504;28;20062;-70
2021/06/06 05:42:38;;;;;;;5.22;2.75;;;;;;;;;;5124377;27;20059;-70
2021/06/06 05:45:06;;;;;;;4.65;3.33;;;;;;;;;;5115979;28;20044;-70
2021/06/06 05:47:32;;;;;;;7.88;4.00;;;;;;;;;;5125935;27;20054;-69
2021/06/06 05:49:58;;;;;;;5.80;3.65;;;;;;;;;;5117045;27;20663;-69
2021/06/06 05:52:24;;;;;;;8.45;4.47;;;;;;;;;;5128224;27;20055;-70
2021/06/06 05:54:50;;;;;;;8.55;4.75;;;;;;;;;;5131856;27;20047;-71
2021/06/06 05:57:18;;;;;;;5.25;4.13;;;;;;;;;;5115880;28;20490;-70
2021/06/06 05:59:44;;;;;;;5.43;4.20;;;;;;;;;;5120712;27;20417;-70
2021/06/06 06:02:10;;;;;;;9.48;4.47;;;;;;;;;;5111523;28;20047;-70
2021/06/06 06:04:36;;;;;;;6.47;3.88;;;;;;;;;;5115701;28;20043;-69
2021/06/06 06:07:02;;;;;;;6.68;4.32;;;;;;;;;;5115535;28;20453;-70
2021/06/06 06:09:28;;;;;;;6.43;4.30;;;;;;;;;;5120586;27;20057;-70
2021/06/06 06:11:54;;;;;;;6.82;5.05;;;;;;;;;;5134332;27;20075;-70
2021/06/06 06:14:21;;;;;;;6.90;5.32;;;;;;;;;;5132068;27;20063;-70
2021/06/06 06:16:47;;;;;;;9.85;4.45;;;;;;;;;;5114041;28;20468;-70
2021/06/06 06:19:13;;;;;;;8.32;4.45;;;;;;;;;;5115038;28;20083;-70
2021/06/06 06:21:41;;;;;;;5.93;4.65;;;;;;;;;;5115066;28;20426;-70
2021/06/06 06:24:10;;;;;;;9.90;4.65;;;;;;;;;;5095064;28;20101;-70
2021/06/06 06:26:36;;;;;;;8.60;4.50;;;;;;;;;;5117551;27;20039;-70
2021/06/06 06:29:02;;;;;;;7.35;4.80;;;;;;;;;;5127144;27;20115;-70
2021/06/06 06:31:30;;;;;;;6.55;4.22;;;;;;;;;;5117286;27;20480;-70
2021/06/06 06:33:56;;;;;;;6.15;4.28;;;;;;;;;;5115455;28;20088;-70
2021/06/06 06:36:22;;;;;;;9.13;4.32;;;;;;;;;;5115172;28;20516;-70
2021/06/06 06:38:50;;;;;;;11.60;5.65;;;;;;;;;;5114921;28;20054;-70
2021/06/06 06:41:17;;;;;;;7.10;3.88;;;;;;;;;;5114742;28;20075;-70
2021/06/06 06:43:43;;;;;;;6.05;4.07;;;;;;;;;;5114748;28;20109;-70
2021/06/06 06:46:09;;;;;;;6.20;4.18;;;;;;;;;;5114175;28;20051;-70
2021/06/06 06:48:37;;;;;;;8.25;5.50;;;;;;;;;;5114279;28;20044;-70
2021/06/06 06:51:04;;;;;;;10.15;7.18;;;;;;;;;;5113614;28;20100;-70
2021/06/06 06:53:29;;;;;;;13.10;7.22;;;;;;;;;;5114272;28;20088;-70
2021/06/06 06:55:56;;;;;;;6.85;5.43;;;;;;;;;;5114740;28;20072;-70
2021/06/06 06:58:22;;;;;;;8.15;5.20;;;;;;;;;;5114939;27;20049;-70
2021/06/06 07:00:50;;;;;;;8.05;4.63;;;;;;;;;;5114552;28;20043;-70
2021/06/06 07:03:19;;;;;;;6.63;4.10;;;;;;;;;;5107256;28;20048;-70
2021/06/06 07:05:46;;;;;;;6.60;4.60;;;;;;;;;;5105189;28;20676;-70
2021/06/06 07:08:14;;;;;;;7.15;3.97;;;;;;;;;;5106782;28;20061;-70
2021/06/06 07:10:42;;;;;;;6.40;4.75;;;;;;;;;;5114497;28;20504;-71
2021/06/06 07:13:08;;;;;;;6.28;4.22;;;;;;;;;;5113804;27;20112;-70
2021/06/06 07:15:35;;;;;;;6.85;4.43;;;;;;;;;;5114153;28;20637;-70
2021/06/06 07:18:02;;;;;;;6.30;3.80;;;;;;;;;;5109298;27;20083;-70
2021/06/06 07:20:34;;;;;;;6.05;4.40;;;;;;;;;;5122522;27;20066;-71
2021/06/06 07:23:03;;;;;;;5.60;3.72;;;;;;;;;;5114228;28;20484;-70
2021/06/06 07:25:30;;;;;;;5.45;4.00;;;;;;;;;;5114027;28;20066;-70
2021/06/06 07:27:56;;;;;;;5.90;2.97;;;;;;;;;;5114240;28;20065;-71
2021/06/06 07:30:25;;;;;;;4.55;3.05;;;;;;;;;;5113569;28;20052;-71
2021/06/06 07:32:51;;;;;;;4.15;2.95;;;;;;;;;;5114001;28;20502;-70
2021/06/06 07:35:19;;;;;;;3.63;2.85;;;;;;;;;;5113844;28;20051;-71
2021/06/06 07:37:44;;;;;;;5.07;2.90;;;;;;;;;;5114119;28;20108;-70
2021/06/06 07:40:14;;;;;;;5.20;2.97;;;;;;;;;;5113331;28;20059;-70
2021/06/06 07:42:40;;;;;;;7.30;2.90;;;;;;;;;;5113763;28;20563;-70
2021/06/06 07:45:07;;;;;;;3.63;2.58;;;;;;;;;;5113675;28;20039;-70
2021/06/06 07:47:33;;;;;;;4.93;3.10;;;;;;;;;;5113528;28;20051;-70
2021/06/06 07:49:59;;;;;;;3.15;2.13;;;;;;;;;;5113999;28;20074;-70
2021/06/06 07:52:25;;;;;;;3.45;2.08;;;;;;;;;;5113964;28;20048;-70
2021/06/06 07:54:51;;;;;;;5.05;2.20;;;;;;;;;;5113490;28;20058;-71
2021/06/06 07:57:19;;;;;;;2.97;1.95;;;;;;;;;;5113730;28;20048;-71
2021/06/06 07:59:45;;;;;;;3.78;2.25;;;;;;;;;;5113396;27;20055;-71
2021/06/06 08:02:11;;;;;;;3.25;1.85;;;;;;;;;;5113288;28;20478;-71
2021/06/06 08:04:37;;;;;;;5.03;2.10;;;;;;;;;;5110010;28;20067;-70
2021/06/06 08:07:03;;;;;;;3.35;2.33;;;;;;;;;;5123893;27;20070;-71
2021/06/06 08:09:29;;;;;;;3.33;1.80;;;;;;;;;;5128712;27;20138;-71
2021/06/06 08:11:56;;;;;;;3.10;1.80;;;;;;;;;;5133557;27;20051;-71
2021/06/06 08:14:23;;;;;;;3.33;2.10;;;;;;;;;;5116527;27;20115;-71
2021/06/06 08:16:49;;;;;;;3.70;1.83;;;;;;;;;;5127811;27;20379;-71
2021/06/06 08:19:15;;;;;;;3.28;2.55;;;;;;;;;;5105062;27;20090;-70
2021/06/06 08:21:44;;;;;;;3.10;1.83;;;;;;;;;;5113448;28;20115;-70
2021/06/06 08:24:11;;;;;;;2.70;2.10;;;;;;;;;;5113591;28;20059;-70
2021/06/06 08:26:37;;;;;;;3.90;2.05;;;;;;;;;;5112627;28;20124;-70
2021/06/06 08:29:05;;;;;;;2.80;1.70;;;;;;;;;;5124946;27;20055;-71
2021/06/06 08:31:34;;;;;;;2.40;1.45;;;;;;;;;;5113218;28;20062;-71
2021/06/06 08:34:01;;;;;;;3.47;1.30;;;;;;;;;;5113253;28;20059;-71
2021/06/06 08:36:30;;;;;;;2.30;1.42;;;;;;;;;;5112444;28;20055;-71
2021/06/06 08:38:57;;;;;;;2.10;1.70;;;;;;;;;;5113598;27;20047;-71
2021/06/06 08:41:26;;;;;;;2.75;1.55;;;;;;;;;;5121103;27;20084;-71
2021/06/06 08:43:57;;;;;;;1.75;1.30;;;;;;;;;;5126512;27;20070;-71
2021/06/06 08:46:25;;;;;;;3.83;1.52;;;;;;;;;;5115712;27;20047;-70
2021/06/06 08:48:52;;;;;;;2.15;1.30;;;;;;;;;;5112793;28;20051;-70
2021/06/06 08:51:24;;;;;;;2.63;1.40;;;;;;;;;;5095694;28;20077;-71
2021/06/06 08:53:58;;;;;;;2.55;1.88;;;;;;;;;;5113125;28;20122;-70
2021/06/06 08:56:26;;;;;;;3.40;1.77;;;;;;;;;;5113334;28;20047;-70
2021/06/06 08:58:56;;;;;;;2.78;1.65;;;;;;;;;;5113296;28;20220;-70
2021/06/06 09:01:27;;;;;;;9.40;2.30;;;;;;;;;;5112716;28;20047;-70
2021/06/06 09:03:58;;;;;;;2.13;1.40;;;;;;;;;;5112586;28;20096;-70
2021/06/06 09:06:31;;;;;;;3.83;1.20;;;;;;;;;;5107542;28;20109;-70
2021/06/06 09:08:59;;;;;;;3.25;1.40;;;;;;;;;;5112467;28;20103;-70
2021/06/06 09:11:28;;;;;;;4.93;2.13;;;;;;;;;;5109865;28;20048;-70
2021/06/06 09:13:55;;;;;;;2.22;1.50;;;;;;;;;;5113008;28;20043;-70
2021/06/06 09:16:25;;;;;;;2.50;1.40;;;;;;;;;;5109986;28;20048;-70
2021/06/06 09:19:02;;;;;;;1.77;1.17;;;;;;;;;;5114050;28;20040;-70
2021/06/06 09:21:28;;;;;;;1.65;1.35;;;;;;;;;;5111179;28;20043;-70
2021/06/06 09:24:05;;;;;;;2.33;1.23;;;;;;;;;;5111955;28;20044;-70
2021/06/06 09:26:31;;;;;;;1.85;1.23;;;;;;;;;;5112743;28;20040;-70
2021/06/06 09:29:05;;;;;;;4.25;1.60;;;;;;;;;;5112340;28;20043;-70
2021/06/06 09:31:32;;;;;;;1.98;1.30;;;;;;;;;;5112340;28;20112;-70
2021/06/06 09:34:04;;;;;;;2.13;1.25;;;;;;;;;;5111734;28;20051;-70
2021/06/06 09:36:34;;;;;;;2.78;1.65;;;;;;;;;;5108432;28;20544;-70
2021/06/06 09:39:18;;;;;;;4.20;2.15;;;;;;;;;;5104893;28;20052;-70
2021/06/06 09:41:45;;;;;;;3.45;1.67;;;;;;;;;;5110439;28;20412;-70
2021/06/06 09:44:23;;;;;;;3.50;1.60;;;;;;;;;;5111158;28;20062;-71
2021/06/06 09:46:51;;;;;;;2.88;1.55;;;;;;;;;;5110641;28;20044;-70
2021/06/06 09:49:29;;;;;;;1.92;1.30;;;;;;;;;;5112351;28;20123;-70
2021/06/06 09:51:56;;;;;;;2.00;1.20;;;;;;;;;;5116274;28;20043;-70
2021/06/06 09:54:30;;;;;;;2.65;1.60;;;;;;;;;;5115707;28;20048;-70
2021/06/06 09:56:58;;;;;;;2.22;1.27;;;;;;;;;;5116074;28;20403;-70
2021/06/06 09:59:27;;;;;;;3.30;1.35;;;;;;;;;;5112015;28;20120;-70
2021/06/06 10:01:58;;;;;;;2.05;1.40;;;;;;;;;;5097938;28;20105;-70
2021/06/06 10:04:27;;;;;;;6.55;1.60;;;;;;;;;;5099525;28;20032;-70
2021/06/06 10:06:53;;;;;;;1.50;1.10;;;;;;;;;;5111940;28;20500;-70
2021/06/06 10:09:26;;;;;;;3.53;1.25;;;;;;;;;;5109249;28;20040;-70
2021/06/06 10:11:56;;;;;;;3.75;1.30;;;;;;;;;;5115373;28;20051;-70
2021/06/06 10:14:25;;;;;;;1.48;1.17;;;;;;;;;;5114516;28;20052;-70
2021/06/06 10:16:54;;;;;;;2.50;1.20;;;;;;;;;;5115956;28;20454;-70
2021/06/06 10:19:22;;;;;;;2.20;1.67;;;;;;;;;;5115200;28;20047;-70
2021/06/06 10:21:53;;;;;;;1.25;1.08;;;;;;;;;;5110716;28;20050;-70
2021/06/06 10:24:23;;;;;;;1.40;1.17;;;;;;;;;;5113837;28;20464;-70
2021/06/06 10:26:52;;;;;;;1.67;1.10;;;;;;;;;;5114359;28;20043;-70
2021/06/06 10:29:25;;;;;;;3.05;0.90;;;;;;;;;;5112533;28;20051;-70
2021/06/06 10:31:53;;;;;;;1.40;1.08;;;;;;;;;;5114204;27;20432;-70
2021/06/06 10:34:26;;;;;;;3.22;1.15;;;;;;;;;;5120902;27;20055;-70
2021/06/06 10:36:53;;;;;;;1.65;1.05;;;;;;;;;;5115011;28;20036;-70
2021/06/06 10:39:22;;;;;;;3.20;1.40;;;;;;;;;;5111682;28;20048;-70
2021/06/06 10:41:54;;;;;;;2.88;1.30;;;;;;;;;;5108076;28;20055;-71
2021/06/06 10:44:24;;;;;;;1.80;1.30;;;;;;;;;;5109823;28;20055;-70
2021/06/06 10:46:52;;;;;;;1.73;1.50;;;;;;;;;;5112026;28;20632;-70
2021/06/06 10:49:21;;;;;;;2.80;1.75;;;;;;;;;;5115032;27;20040;-70
2021/06/06 10:51:55;;;;;;;2.47;1.65;;;;;;;;;;5113355;28;20077;-70
2021/06/06 10:54:31;;;;;;;2.15;1.60;;;;;;;;;;5095014;28;20055;-71
2021/06/06 10:56:59;;;;;;;1.92;1.20;;;;;;;;;;5114772;28;20062;-70
2021/06/06 10:59:40;;;;;;;2.85;1.75;;;;;;;;;;5114435;28;20096;-70
2021/06/06 11:02:27;;;;;;;2.00;1.70;;;;;;;;;;5113944;28;20400;-70
2021/06/06 11:04:53;;;;;;;;;;;;;;;;;;5114492;28;20694;-69
2021/06/06 11:07:41;;;;;;;2.78;1.50;;;;;;;;;;5113363;28;19920;-69
2021/06/06 11:10:21;;;;;;;3.28;2.17;;;;;;;;;;5114114;28;20053;-69
2021/06/06 11:12:49;;;;;;;3.30;2.10;;;;;;;;;;5113462;28;20058;-69
2021/06/06 11:15:21;;;;;;;7.38;1.70;;;;;;;;;;5113642;27;20077;-69
2021/06/06 11:17:47;;;;;;;5.22;2.00;;;;;;;;;;5108687;28;20049;-69
2021/06/06 11:20:16;;;;;;;2.63;2.00;;;;;;;;;;5113975;28;20046;-69
2021/06/06 11:22:45;;;;;;;2.47;1.80;;;;;;;;;;5112129;28;20128;-69
2021/06/06 11:25:28;;;;;;;2.63;1.67;;;;;;;;;;5106594;28;20128;-69
2021/06/06 11:27:58;;;;;;;3.08;1.40;;;;;;;;;;5098526;28;20059;-70
2021/06/06 11:30:40;;;;;;;2.53;1.73;;;;;;;;;;5112535;28;20043;-70
2021/06/06 11:33:08;;;;;;;4.07;1.40;;;;;;;;;;5113616;28;20051;-70
2021/06/06 11:35:48;;;;;;;2.60;1.80;;;;;;;;;;5113611;28;20045;-70
2021/06/06 11:38:36;;;;;;;2.30;1.75;;;;;;;;;;5113265;28;20055;-70
2021/06/06 11:41:12;;;;;;;3.13;1.80;;;;;;;;;;5111020;28;20047;-70
2021/06/06 11:43:43;;;;;;;2.95;1.80;;;;;;;;;;5110491;28;20075;-70
2021/06/06 11:46:21;;;;;;;2.50;1.90;;;;;;;;;;5114104;28;20040;-71
2021/06/06 11:48:56;;;;;;;2.28;1.65;;;;;;;;;;5114030;28;20515;-69
2021/06/06 11:51:26;;;;;;;3.08;1.60;;;;;;;;;;5113646;28;20096;-70
2021/06/06 11:53:53;;;;;;;2.30;1.48;;;;;;;;;;5113181;28;20047;-68
2021/06/06 11:56:28;;;;;;;2.50;1.50;;;;;;;;;;5112887;28;20491;-69
2021/06/06 11:58:57;;;;;;;2.28;1.50;;;;;;;;;;5113453;28;20138;-68
2021/06/06 12:01:24;;;;;;;2.85;1.70;;;;;;;;;;5113530;28;20099;-68
2021/06/06 12:03:51;;;;;;;2.10;1.40;;;;;;;;;;5112912;28;20071;-68
2021/06/06 12:06:25;;;;;;;3.22;1.63;;;;;;;;;;5112592;28;20545;-68
2021/06/06 12:08:55;;;;;;;1.95;1.40;;;;;;;;;;5111953;28;20079;-68
2021/06/06 12:11:26;;;;;;;2.35;1.88;;;;;;;;;;5106358;28;20048;-69
2021/06/06 12:13:54;;;;;;;2.88;2.28;;;;;;;;;;5113800;28;20051;-68
2021/06/06 12:16:22;;;;;;;5.15;1.77;;;;;;;;;;5113139;28;20089;-68
2021/06/06 12:19:01;;;;;;;5.50;2.25;;;;;;;;;;5113286;28;20048;-68
2021/06/06 12:21:27;;;;;;;3.10;2.10;;;;;;;;;;5114408;28;20051;-68
2021/06/06 12:24:08;;;;;;;3.20;2.40;;;;;;;;;;5113334;28;20048;-68
2021/06/06 12:26:36;;;;;;;5.45;4.60;;;;;;;;;;5113196;28;20047;-68
2021/06/06 12:29:03;;;;;;;3.75;2.85;;;;;;;;;;5118797;27;20588;-70
2021/06/06 12:31:33;;;;;;;3.60;2.70;;;;;;;;;;5134095;27;20134;-70
2021/06/06 12:34:11;;;;;;;4.10;2.88;;;;;;;;;;5120282;27;20500;-69
2021/06/06 12:36:38;;;;;;;3.50;2.60;;;;;;;;;;5113063;28;20048;-67
2021/06/06 12:39:08;;;;;;;3.47;2.50;;;;;;;;;;5112410;28;20052;-67
2021/06/06 12:41:38;;;;;;;3.95;2.60;;;;;;;;;;5112347;28;20383;-69
2021/06/06 12:44:06;;;;;;;3.50;2.70;;;;;;;;;;5123196;27;20047;-69
2021/06/06 12:46:43;;;;;;;3.85;2.92;;;;;;;;;;5117896;27;20050;-68
2021/06/06 12:49:11;;;;;;;4.93;3.20;;;;;;;;;;5112675;28;20052;-68
2021/06/06 12:51:39;;;;;;;4.95;2.67;;;;;;;;;;5112678;28;20056;-68
2021/06/06 12:54:16;;;;;;;3.80;2.92;;;;;;;;;;5112781;28;20395;-69
2021/06/06 12:56:42;;;;;;;4.15;2.55;;;;;;;;;;5113085;28;20039;-69
2021/06/06 12:59:12;;;;;;;3.70;2.50;;;;;;;;;;5112394;28;20042;-69
2021/06/06 13:01:39;;;;;;;3.55;2.78;;;;;;;;;;5112479;28;20054;-69
2021/06/06 13:04:11;;;;;;;5.45;3.50;;;;;;;;;;5110440;28;20048;-68
2021/06/06 13:06:40;;;;;;;4.03;2.55;;;;;;;;;;5112868;28;20106;-69
2021/06/06 13:09:16;;;;;;;4.05;2.97;;;;;;;;;;5107921;28;20048;-69
2021/06/06 13:11:43;;;;;;;4.13;2.92;;;;;;;;;;5106301;28;20464;-68
2021/06/06 13:14:21;;;;;;;5.90;3.47;;;;;;;;;;5103646;28;20047;-68
2021/06/06 13:16:58;;;;;;;4.30;3.38;;;;;;;;;;5112123;28;20457;-68
2021/06/06 13:19:25;;;;;;;3.53;2.80;;;;;;;;;;5106977;28;20048;-67
2021/06/06 13:22:07;;;;;;;4.35;3.13;;;;;;;;;;5111422;28;20100;-67
2021/06/06 13:24:37;;;;;;;3.80;2.72;;;;;;;;;;5109513;28;20048;-67
2021/06/06 13:27:07;;;;;;;3.83;2.92;;;;;;;;;;5115458;28;20471;-67
2021/06/06 13:29:34;;;;;;;3.28;2.50;;;;;;;;;;5116042;28;20407;-67
2021/06/06 13:32:08;;;;;;;4.25;2.70;;;;;;;;;;5117172;28;20097;-67
2021/06/06 13:34:34;;;;;;;6.03;3.38;;;;;;;;;;5114524;28;20051;-67
2021/06/06 13:37:00;;;;;;;3.97;2.72;;;;;;;;;;5107074;28;20062;-67
2021/06/06 13:39:30;;;;;;;3.70;2.42;;;;;;;;;;5114714;28;20071;-68
2021/06/06 13:41:59;;;;;;;4.22;2.70;;;;;;;;;;5113913;28;20055;-68
2021/06/06 13:44:27;;;;;;;4.13;3.28;;;;;;;;;;5112632;28;20043;-68
2021/06/06 13:46:55;;;;;;;4.78;3.03;;;;;;;;;;5114444;28;20089;-67
2021/06/06 13:49:21;;;;;;;3.90;2.70;;;;;;;;;;5115791;28;20055;-67
2021/06/06 13:51:47;;;;;;;3.80;2.92;;;;;;;;;;5115652;28;20462;-68
2021/06/06 13:54:13;;;;;;;8.80;2.75;;;;;;;;;;5115907;28;20055;-67
2021/06/06 13:56:40;;;;;;;4.10;2.78;;;;;;;;;;5115948;28;20055;-67
2021/06/06 13:59:07;;;;;;;4.72;2.85;;;;;;;;;;5115851;28;20048;-67
2021/06/06 14:01:34;;;;;;;3.55;2.75;;;;;;;;;;5104028;28;20044;-67
2021/06/06 14:04:00;;;;;;;4.18;2.90;;;;;;;;;;5115678;28;20062;-67
2021/06/06 14:06:26;;;;;;;3.60;2.70;;;;;;;;;;5115410;28;20051;-67
2021/06/06 14:08:52;;;;;;;2.75;2.13;;;;;;;;;;5115467;28;20051;-67
2021/06/06 14:11:22;;;;;;;3.40;2.38;;;;;;;;;;5115020;28;20565;-67
2021/06/06 14:13:48;;;;;;;4.28;2.67;;;;;;;;;;5097828;27;20052;-67
2021/06/06 14:16:17;;;;;;;2.88;2.13;;;;;;;;;;5094868;28;20052;-67
2021/06/06 14:18:44;;;;;;;2.55;1.85;;;;;;;;;;5095087;28;20052;-68
2021/06/06 14:21:12;;;;;;;2.55;1.80;;;;;;;;;;5094629;28;20044;-66
2021/06/06 14:23:39;;;;;;;2.78;1.60;;;;;;;;;;5095036;28;20176;-66
2021/06/06 14:26:06;;;;;;;2.72;1.52;;;;;;;;;;5094930;28;20067;-66
2021/06/06 14:28:32;;;;;;;3.45;1.85;;;;;;;;;;5095721;28;20496;-66
2021/06/06 14:30:59;;;;;;;2.85;1.90;;;;;;;;;;5114961;28;20055;-66
2021/06/06 14:33:28;;;;;;;3.97;1.92;;;;;;;;;;5117465;27;20051;-66
2021/06/06 14:35:57;;;;;;;3.13;2.22;;;;;;;;;;5120915;27;20039;-66
2021/06/06 14:38:25;;;;;;;4.25;2.25;;;;;;;;;;5115067;28;20048;-66
2021/06/06 14:40:52;;;;;;;3.47;2.83;;;;;;;;;;5094583;28;20052;-67
2021/06/06 14:43:19;;;;;;;3.40;2.42;;;;;;;;;;5094530;28;20051;-66
2021/06/06 14:45:47;;;;;;;3.65;2.40;;;;;;;;;;5094401;28;20043;-66
2021/06/06 14:48:15;;;;;;;4.25;2.80;;;;;;;;;;5104982;28;20051;-66
2021/06/06 14:50:44;;;;;;;3.65;2.60;;;;;;;;;;5114717;28;20089;-68
2021/06/06 14:53:11;;;;;;;3.28;2.53;;;;;;;;;;5114520;28;20134;-68